createdAt,value
2022-10-29T00:02:16.613Z,101438.94
2022-10-29T00:05:19.619Z,101432.63
2022-10-29T00:08:22.093Z,101439.84
2022-10-29T00:11:24.861Z,101437.13
2022-10-29T00:14:27.345Z,101437.13
2022-10-29T00:17:30.192Z,101440.72
2022-10-29T00:20:32.674Z,101443.44
2022-10-29T00:23:35.451Z,101439.81
2022-10-29T00:26:37.907Z,101449.72
2022-10-29T00:29:40.623Z,101455.13
2022-10-29T00:32:43.208Z,101447.03
2022-10-29T00:36:05.769Z,101455.13
2022-10-29T00:39:13.335Z,101447.03
2022-10-29T00:42:16.782Z,101446.13
2022-10-29T00:45:21.147Z,101453.34
2022-10-29T00:48:25.753Z,101444.31
2022-10-29T00:51:30.649Z,101438.03
2022-10-29T00:54:36.098Z,101430.81
2022-10-29T00:57:47.164Z,101432.63
2022-10-29T01:00:49.869Z,101432.63
2022-10-29T01:03:52.876Z,101434.44
2022-10-29T01:06:55.934Z,101432.63
2022-10-29T01:09:58.571Z,101431.72
2022-10-29T01:13:27.453Z,101418.22
2022-10-29T01:16:44.229Z,101423.63
2022-10-29T01:20:08.598Z,101423.63
2022-10-29T01:23:33.236Z,101427.22
2022-10-29T01:26:53.470Z,101422.72
2022-10-29T01:30:21.537Z,101422.72
2022-10-29T01:33:30.263Z,101424.53
2022-10-29T01:36:40.765Z,101419.13
2022-10-29T01:39:45.150Z,101415.53
2022-10-29T01:42:53.933Z,101423.63
2022-10-29T01:46:02.112Z,101411.91
2022-10-29T01:49:17.814Z,101403.81
2022-10-29T01:52:22.190Z,101398.41
2022-10-29T01:55:30.702Z,101409.22
2022-10-29T01:58:34.771Z,101388.50
2022-10-29T02:01:47.423Z,101393.00
2022-10-29T02:05:01.688Z,101401.09
2022-10-29T02:08:21.336Z,101392.09
2022-10-29T02:11:39.501Z,101394.81
2022-10-29T02:14:48.299Z,101389.41
2022-10-29T02:17:51.179Z,101373.19
2022-10-29T02:20:53.758Z,101365.09
2022-10-29T02:23:56.490Z,101383.13
2022-10-29T02:26:58.957Z,101393.91
2022-10-29T02:30:01.793Z,101375.00
2022-10-29T02:33:04.312Z,101373.22
2022-10-29T02:36:07.595Z,101375.03
2022-10-29T02:39:10.671Z,101383.13
2022-10-29T02:42:13.371Z,101383.13
2022-10-29T02:45:15.906Z,101381.31
2022-10-29T02:48:18.672Z,101371.41
2022-10-29T02:51:21.142Z,101373.22
2022-10-29T02:54:23.941Z,101370.50
2022-10-29T02:57:26.388Z,101348.09
2022-10-29T03:00:29.226Z,101368.72
2022-10-29T03:03:31.684Z,101374.12
2022-10-29T03:06:34.414Z,101375.03
2022-10-29T03:09:37.029Z,101385.81
2022-10-29T03:12:39.756Z,101384.03
2022-10-29T03:15:44.715Z,101389.44
2022-10-29T03:18:47.639Z,101375.94
2022-10-29T03:21:50.069Z,101379.53
2022-10-29T03:24:52.773Z,101371.44
2022-10-29T03:27:55.624Z,101381.31
2022-10-29T03:30:58.821Z,101368.72
2022-10-29T03:34:01.305Z,101366.03
2022-10-29T03:37:04.059Z,101368.75
2022-10-29T03:40:07.543Z,101370.53
2022-10-29T03:43:10.284Z,101371.44
2022-10-29T03:46:12.760Z,101365.13
2022-10-29T03:49:15.458Z,101358.84
2022-10-29T03:52:17.909Z,101352.53
2022-10-29T03:55:20.646Z,101362.44
2022-10-29T03:58:23.635Z,101364.22
2022-10-29T04:01:26.418Z,101361.53
2022-10-29T04:04:29.214Z,101361.53
2022-10-29T04:07:31.679Z,101362.50
2022-10-29T04:10:34.477Z,101373.31
2022-10-29T04:13:37.161Z,101362.50
2022-10-29T04:16:39.868Z,101347.22
2022-10-29T04:19:42.355Z,101367.00
2022-10-29T04:29:30.238Z,101358.00
2022-10-29T04:32:32.727Z,101358.00
2022-10-29T04:35:35.472Z,101367.91
2022-10-29T04:38:38.127Z,101371.50
2022-10-29T04:41:40.899Z,101375.09
2022-10-29T04:44:43.345Z,101374.19
2022-10-29T04:47:46.288Z,101358.00
2022-10-29T04:50:49.127Z,101358.91
2022-10-29T04:53:51.867Z,101360.72
2022-10-29T04:56:54.410Z,101358.91
2022-10-29T04:59:57.113Z,101361.63
2022-10-29T05:02:59.957Z,101365.22
2022-10-29T05:06:04.867Z,101363.41
2022-10-29T05:09:07.350Z,101367.00
2022-10-29T05:12:10.116Z,101368.81
2022-10-29T05:15:12.608Z,101385.00
2022-10-29T05:18:15.498Z,101374.22
2022-10-29T05:21:17.948Z,101373.31
2022-10-29T05:24:20.718Z,101393.09
2022-10-29T05:27:23.195Z,101407.50
2022-10-29T05:30:25.942Z,101385.91
2022-10-29T05:33:28.437Z,101387.69
2022-10-29T05:36:31.211Z,101393.09
2022-10-29T05:39:33.652Z,101392.19
2022-10-29T05:42:38.183Z,101409.28
2022-10-29T05:45:41.181Z,101414.69
2022-10-29T05:48:43.884Z,101411.09
2022-10-29T05:51:46.367Z,101405.69
2022-10-29T05:54:49.106Z,101413.78
2022-10-29T05:57:58.877Z,101417.38
2022-10-29T06:01:06.072Z,101405.69
2022-10-29T06:04:08.941Z,101411.09
2022-10-29T06:07:11.411Z,101420.09
2022-10-29T06:10:14.266Z,101423.69
2022-10-29T06:13:18.638Z,101426.37
2022-10-29T06:16:21.468Z,101428.19
2022-10-29T06:19:23.947Z,101423.69
2022-10-29T06:22:26.684Z,101421.88
2022-10-29T06:25:29.166Z,101419.19
2022-10-29T06:28:34.799Z,101410.19
2022-10-29T06:31:37.602Z,101402.09
2022-10-29T06:34:40.342Z,101410.19
2022-10-29T06:37:42.829Z,101403.88
2022-10-29T06:40:52.717Z,101394.88
2022-10-29T06:43:55.291Z,101388.59
2022-10-29T06:46:58.075Z,101390.41
2022-10-29T06:50:01.095Z,101391.31
2022-10-29T06:53:06.045Z,101385.00
2022-10-29T06:56:08.480Z,101390.41
2022-10-29T06:59:11.666Z,101385.00
2022-10-29T07:02:14.127Z,101387.69
2022-10-29T07:05:16.871Z,101389.50
2022-10-29T07:08:19.408Z,101385.87
2022-10-29T07:11:22.216Z,101387.69
2022-10-29T07:14:24.711Z,101383.19
2022-10-29T07:17:27.491Z,101386.78
2022-10-29T07:20:36.087Z,101390.38
2022-10-29T07:23:38.821Z,101397.59
2022-10-29T07:26:41.321Z,101389.50
2022-10-29T07:29:44.508Z,101385.03
2022-10-29T07:32:46.973Z,101392.22
2022-10-29T07:35:49.723Z,101390.41
2022-10-29T07:38:52.339Z,101386.75
2022-10-29T07:41:58.239Z,101390.34
2022-10-29T07:45:01.896Z,101381.34
2022-10-29T07:48:09.701Z,101387.69
2022-10-29T07:51:12.150Z,101385.84
2022-10-29T07:54:15.015Z,101388.53
2022-10-29T07:57:17.579Z,101395.72
2022-10-29T08:00:20.349Z,101391.22
2022-10-29T08:03:23.098Z,101393.00
2022-10-29T08:06:25.505Z,101397.50
2022-10-29T08:09:28.740Z,101403.81
2022-10-29T08:12:31.203Z,101411.91
2022-10-29T08:15:35.013Z,101423.63
2022-10-29T08:18:37.590Z,101421.81
2022-10-29T08:21:40.434Z,101427.22
2022-10-29T08:24:42.871Z,101423.63
2022-10-29T08:27:45.687Z,101413.72
2022-10-29T08:30:51.441Z,101420.94
2022-10-29T08:33:54.136Z,101427.25
2022-10-29T08:36:56.574Z,101427.31
2022-10-29T08:39:59.284Z,101430.81
2022-10-29T08:43:46.140Z,101431.72
2022-10-29T08:46:55.240Z,101421.84
2022-10-29T08:50:23.924Z,101427.22
2022-10-29T08:53:34.120Z,101420.91
2022-10-29T08:56:38.695Z,101423.63
2022-10-29T09:00:02.484Z,101419.06
2022-10-29T09:03:11.346Z,101420.84
2022-10-29T09:06:19.752Z,101416.34
2022-10-29T09:09:35.111Z,101409.13
2022-10-29T09:12:53.293Z,101390.31
2022-10-29T09:16:07.567Z,101406.47
2022-10-29T09:19:29.548Z,101412.78
2022-10-29T09:22:51.225Z,101412.84
2022-10-29T09:26:01.611Z,101400.22
2022-10-29T09:29:07.031Z,101389.41
2022-10-29T09:32:13.938Z,101409.19
2022-10-29T09:35:19.173Z,101406.44
2022-10-29T09:38:32.847Z,101410.97
2022-10-29T09:41:35.572Z,101412.75
2022-10-29T09:44:47.525Z,101401.06
2022-10-29T09:48:01.735Z,101409.13
2022-10-29T09:51:23.099Z,101400.09
2022-10-29T09:54:27.286Z,101401.94
2022-10-29T09:57:31.988Z,101399.25
2022-10-29T10:00:35.236Z,101393.00
2022-10-29T10:03:46.938Z,101396.59
2022-10-29T10:07:20.729Z,101390.28
2022-10-29T10:10:24.085Z,101394.78
2022-10-29T10:13:31.637Z,101388.41
2022-10-29T10:16:34.416Z,101389.25
2022-10-29T10:19:44.286Z,101383.91
2022-10-29T10:22:47.513Z,101386.56
2022-10-29T10:25:51.141Z,101388.44
2022-10-29T10:29:05.737Z,101376.75
2022-10-29T10:32:08.983Z,101397.38
2022-10-29T10:35:28.080Z,101392.91
2022-10-29T10:38:41.291Z,101382.94
2022-10-29T10:41:44.265Z,101368.66
2022-10-29T10:44:59.186Z,101374.09
2022-10-29T10:48:02.410Z,101372.22
2022-10-29T10:51:19.339Z,101371.38
2022-10-29T10:54:42.408Z,101365.03
2022-10-29T10:57:54.125Z,101360.56
2022-10-29T11:01:06.642Z,101362.31
2022-10-29T11:04:12.084Z,101367.78
2022-10-29T11:07:15.540Z,101365.91
2022-10-29T11:10:19.452Z,101367.72
2022-10-29T11:13:24.086Z,101373.03
2022-10-29T11:16:34.359Z,101364.94
2022-10-29T11:19:43.184Z,101352.31
2022-10-29T11:22:47.767Z,101352.37
2022-10-29T11:25:56.498Z,101341.63
2022-10-29T11:29:14.586Z,101326.31
2022-10-29T11:32:51.214Z,101344.28
2022-10-29T11:36:04.382Z,101335.28
2022-10-29T11:39:26.924Z,101337.91
2022-10-29T11:42:29.791Z,101332.56
2022-10-29T11:46:21.963Z,101330.78
2022-10-29T11:49:39.349Z,101324.41
2022-10-29T11:53:00.714Z,101338.97
2022-10-29T11:56:29.393Z,101348.00
2022-10-29T11:59:53.573Z,101348.81
2022-10-29T12:03:17.418Z,101328.97
2022-10-29T12:06:41.957Z,101318.19
2022-10-29T12:10:03.155Z,101328.13
2022-10-29T12:13:33.254Z,101322.72
2022-10-29T12:17:05.865Z,101330.81
2022-10-29T12:20:22.192Z,101329.97
2022-10-29T12:23:49.376Z,101325.44
2022-10-29T12:27:26.110Z,101320.03
2022-10-29T12:30:32.013Z,101331.75
2022-10-29T12:33:57.311Z,101335.31
2022-10-29T12:37:15.465Z,101331.69
2022-10-29T12:40:23.343Z,101314.56
2022-10-29T12:43:27.810Z,101310.06
2022-10-29T12:46:43.807Z,101295.66
2022-10-29T12:50:13.636Z,101292.06
2022-10-29T12:53:35.052Z,101292.06
2022-10-29T12:56:37.936Z,101294.78
2022-10-29T12:59:44.715Z,101284.91
2022-10-29T13:02:47.462Z,101293.91
2022-10-29T13:05:50.382Z,101293.00
2022-10-29T13:08:57.286Z,101292.09
2022-10-29T13:12:11.430Z,101284.97
2022-10-29T13:15:15.615Z,101279.62
2022-10-29T13:18:24.631Z,101274.13
2022-10-29T13:22:04.719Z,101268.78
2022-10-29T13:25:38.397Z,101260.66
2022-10-29T13:28:40.817Z,101262.44
2022-10-29T13:31:45.972Z,101269.69
2022-10-29T13:34:56.997Z,101267.00
2022-10-29T13:38:08.779Z,101267.00
2022-10-29T13:41:14.837Z,101265.22
2022-10-29T13:44:22.360Z,101260.69
2022-10-29T13:47:25.508Z,101253.47
2022-10-29T13:50:29.815Z,101261.56
2022-10-29T13:53:39.941Z,101254.37
2022-10-29T13:56:49.344Z,101253.50
2022-10-29T13:59:58.318Z,101256.19
2022-10-29T14:03:38.719Z,101241.78
2022-10-29T14:06:41.592Z,101239.09
2022-10-29T14:09:47.560Z,101248.09
2022-10-29T14:12:55.865Z,101261.59
2022-10-29T14:16:07.457Z,101273.31
2022-10-29T14:19:14.980Z,101275.09
2022-10-29T14:22:39.225Z,101269.69
2022-10-29T14:25:41.964Z,101263.41
2022-10-29T14:28:44.714Z,101265.22
2022-10-29T14:31:48.885Z,101267.00
2022-10-29T14:34:51.895Z,101261.59
2022-10-29T14:37:57.037Z,101258.00
2022-10-29T14:40:59.966Z,101251.72
2022-10-29T14:44:04.215Z,101245.44
2022-10-29T14:47:06.573Z,101244.53
2022-10-29T14:50:18.764Z,101250.84
2022-10-29T14:53:29.715Z,101244.59
2022-10-29T14:56:38.669Z,101237.41
2022-10-29T14:59:48.180Z,101227.53
2022-10-29T15:02:51.481Z,101232.97
2022-10-29T15:06:17.527Z,101237.44
2022-10-29T15:09:28.061Z,101241.03
2022-10-29T15:12:35.763Z,101241.00
2022-10-29T15:15:38.560Z,101241.00
2022-10-29T15:18:41.128Z,101233.78
2022-10-29T15:21:44.097Z,101228.44
2022-10-29T15:24:48.437Z,101226.63
2022-10-29T15:27:51.906Z,101230.22
2022-10-29T15:30:54.552Z,101231.13
2022-10-29T15:33:59.368Z,101231.13
2022-10-29T15:37:20.205Z,101231.16
2022-10-29T15:40:24.987Z,101232.06
2022-10-29T15:43:29.867Z,101227.53
2022-10-29T15:46:44.500Z,101221.22
2022-10-29T15:49:47.508Z,101206.87
2022-10-29T15:52:56.101Z,101232.03
2022-10-29T15:55:58.618Z,101225.72
2022-10-29T15:59:01.468Z,101217.66
2022-10-29T16:02:13.186Z,101225.75
2022-10-29T16:05:16.572Z,101224.84
2022-10-29T16:08:28.991Z,101230.25
2022-10-29T16:11:34.152Z,101233.87
2022-10-29T16:14:36.621Z,101234.78
2022-10-29T16:17:39.407Z,101240.16
2022-10-29T16:20:42.176Z,101233.87
2022-10-29T16:23:45.392Z,101231.19
2022-10-29T16:26:47.844Z,101243.78
2022-10-29T16:29:51.765Z,101240.16
2022-10-29T16:32:54.876Z,101235.66
2022-10-29T16:35:58.072Z,101233.87
2022-10-29T16:39:00.757Z,101238.38
2022-10-29T16:42:03.854Z,101243.78
2022-10-29T16:45:10.113Z,101239.28
2022-10-29T16:48:12.886Z,101244.66
2022-10-29T16:51:15.555Z,101238.38
2022-10-29T16:54:18.338Z,101242.88
2022-10-29T16:57:20.919Z,101239.28
2022-10-29T17:00:31.559Z,101242.88
2022-10-29T17:03:34.394Z,101247.37
2022-10-29T17:06:37.178Z,101249.19
2022-10-29T17:09:40.166Z,101257.25
2022-10-29T17:12:43.101Z,101241.06
2022-10-29T17:15:45.586Z,101239.28
2022-10-29T17:18:50.827Z,101235.69
2022-10-29T17:21:53.655Z,101235.69
2022-10-29T17:24:58.772Z,101242.88
2022-10-29T17:28:02.350Z,101247.37
2022-10-29T17:31:09.613Z,101249.19
2022-10-29T17:34:12.076Z,101252.78
2022-10-29T17:37:16.089Z,101243.81
2022-10-29T17:40:18.610Z,101251.00
2022-10-29T17:43:21.598Z,101250.09
2022-10-29T17:46:24.126Z,101251.00
2022-10-29T17:49:27.243Z,101253.69
2022-10-29T17:52:29.654Z,101248.31
2022-10-29T17:55:32.361Z,101254.59
2022-10-29T17:58:35.007Z,101258.19
2022-10-29T18:01:38.084Z,101254.59
2022-10-29T18:04:41.706Z,101248.31
2022-10-29T18:07:44.390Z,101252.78
2022-10-29T18:10:47.439Z,101255.50
2022-10-29T18:13:50.805Z,101251.91
2022-10-29T18:16:53.573Z,101241.13
2022-10-29T18:19:56.351Z,101242.91
2022-10-29T18:22:59.445Z,101240.22
2022-10-29T18:26:05.214Z,101234.81
2022-10-29T18:29:10.451Z,101226.72
2022-10-29T18:32:12.965Z,101220.44
2022-10-29T18:35:16.052Z,101218.62
2022-10-29T18:38:18.590Z,101214.13
2022-10-29T18:41:22.691Z,101217.72
2022-10-29T18:44:26.346Z,101223.13
2022-10-29T18:47:29.304Z,101223.16
2022-10-29T18:50:31.871Z,101212.34
2022-10-29T18:53:36.110Z,101211.44
2022-10-29T18:56:39.331Z,101224.03
2022-10-29T18:59:42.307Z,101220.47
2022-10-29T19:02:45.362Z,101210.59
2022-10-29T19:05:48.209Z,101220.47
2022-10-29T19:08:50.951Z,101208.75
2022-10-29T19:11:56.737Z,101206.03
2022-10-29T19:15:02.394Z,101209.63
2022-10-29T19:18:06.257Z,101207.84
2022-10-29T19:21:13.720Z,101215.91
2022-10-29T19:24:17.141Z,101197.03
2022-10-29T19:27:19.948Z,101207.81
2022-10-29T19:30:22.687Z,101203.34
2022-10-29T19:33:25.148Z,101198.84
2022-10-29T19:36:29.154Z,101200.63
2022-10-29T19:39:31.945Z,101206.03
2022-10-29T19:42:35.803Z,101207.81
2022-10-29T19:45:40.121Z,101199.72
2022-10-29T19:48:43.248Z,101197.00
2022-10-29T19:51:46.413Z,101197.00
2022-10-29T19:54:49.213Z,101170.97
2022-10-29T19:57:51.804Z,101199.69
2022-10-29T20:00:55.181Z,101200.59
2022-10-29T20:03:58.407Z,101202.41
2022-10-29T20:07:01.105Z,101200.59
2022-10-29T20:10:04.972Z,101200.59
2022-10-29T20:13:07.735Z,101200.56
2022-10-29T20:16:21.282Z,101189.78
2022-10-29T20:19:24.224Z,101199.69
2022-10-29T20:22:26.961Z,101198.78
2022-10-29T20:25:29.484Z,101199.69
2022-10-29T20:28:33.040Z,101203.28
2022-10-29T20:31:40.097Z,101193.37
2022-10-29T20:34:43.882Z,101194.28
2022-10-29T20:37:46.548Z,101199.72
2022-10-29T20:40:50.791Z,101191.59
2022-10-29T20:43:54.984Z,101191.59
2022-10-29T20:46:57.828Z,101198.78
2022-10-29T20:50:00.854Z,101196.06
2022-10-29T20:53:03.738Z,101203.28
2022-10-29T20:56:08.199Z,101195.19
2022-10-29T20:59:13.382Z,101205.06
2022-10-29T21:02:15.950Z,101211.38
2022-10-29T21:05:18.791Z,101197.88
2022-10-29T21:08:21.387Z,101192.47
2022-10-29T21:11:24.240Z,101185.28
2022-10-29T21:14:27.593Z,101190.66
2022-10-29T21:17:30.379Z,101187.97
2022-10-29T21:20:32.839Z,101196.06
2022-10-29T21:23:39.222Z,101194.28
2022-10-29T21:26:41.650Z,101196.06
2022-10-29T21:29:44.712Z,101179.87
2022-10-29T21:32:47.219Z,101180.78
2022-10-29T21:35:51.500Z,101183.47
2022-10-29T21:38:54.028Z,101184.38
2022-10-29T21:41:57.144Z,101187.09
2022-10-29T21:44:59.687Z,101178.09
2022-10-29T21:48:02.617Z,101161.91
2022-10-29T21:51:07.153Z,101158.31
2022-10-29T21:54:09.861Z,101156.53
2022-10-29T21:57:12.331Z,101153.81
2022-10-29T22:00:16.041Z,101152.91
2022-10-29T22:03:18.802Z,101146.63
2022-10-29T22:06:23.005Z,101134.91
2022-10-29T22:09:26.158Z,101144.81
2022-10-29T22:12:31.119Z,101161.91
2022-10-29T22:15:34.646Z,101168.22
2022-10-29T22:18:37.703Z,101158.31
2022-10-29T22:21:40.897Z,101161.94
2022-10-29T22:24:43.306Z,101165.53
2022-10-29T22:27:46.037Z,101171.81
2022-10-29T22:30:48.466Z,101163.72
2022-10-29T22:33:51.450Z,101161.03
2022-10-29T22:36:54.122Z,101155.63
2022-10-29T22:39:57.182Z,101158.31
2022-10-29T22:43:00.034Z,101154.72
2022-10-29T22:46:04.544Z,101146.63
2022-10-29T22:49:07.585Z,101145.75
2022-10-29T22:52:10.309Z,101151.13
2022-10-29T22:55:12.774Z,101143.94
2022-10-29T22:58:15.614Z,101152.06
2022-10-29T23:01:26.114Z,101147.56
2022-10-29T23:04:28.931Z,101143.97
2022-10-29T23:10:35.930Z,101152.97
2022-10-29T23:13:38.424Z,101152.06
2022-10-29T23:16:41.190Z,101152.06
2022-10-29T23:19:43.697Z,101135.91
2022-10-29T23:22:46.407Z,101146.66
2022-10-29T23:25:48.820Z,101141.28
2022-10-29T23:28:51.786Z,101144.88
2022-10-29T23:31:54.275Z,101154.75
2022-10-29T23:34:56.977Z,101153.84
2022-10-29T23:37:59.786Z,101148.47
2022-10-29T23:41:03.249Z,101157.47
2022-10-29T23:44:05.711Z,101153.88
2022-10-29T23:47:08.478Z,101140.38
2022-10-29T23:50:11.090Z,101150.25
2022-10-29T23:53:14.145Z,101131.38
2022-10-29T23:56:16.588Z,101134.06
2022-10-29T23:59:19.350Z,101141.25
